createdAt,value
2023-01-12T00:01:47.769Z,3.98
2023-01-12T00:04:15.674Z,3.97
2023-01-12T00:06:42.987Z,3.93
2023-01-12T00:09:10.763Z,3.98
2023-01-12T00:11:38.821Z,3.98
2023-01-12T00:14:07.219Z,3.99
2023-01-12T00:16:41.133Z,4.00
2023-01-12T00:19:18.549Z,3.99
2023-01-12T00:22:12.111Z,3.97
2023-01-12T00:24:41.617Z,4.00
2023-01-12T00:27:11.683Z,3.99
2023-01-12T00:29:38.883Z,4.02
2023-01-12T00:32:07.290Z,3.99
2023-01-12T00:34:34.483Z,3.95
2023-01-12T00:37:02.198Z,3.99
2023-01-12T00:39:29.248Z,3.98
2023-01-12T00:42:14.852Z,4.01
2023-01-12T00:45:00.185Z,4.01
2023-01-12T05:47:29.725Z,3.57
2023-01-12T05:49:56.589Z,3.60
2023-01-12T05:52:23.557Z,3.65
2023-01-12T05:54:50.486Z,3.70
2023-01-12T05:57:17.463Z,3.76
2023-01-12T05:59:44.443Z,3.80
2023-01-12T06:02:14.114Z,3.84
2023-01-12T06:04:41.115Z,3.89
2023-01-12T06:07:08.244Z,3.89
2023-01-12T06:09:36.186Z,3.84
2023-01-12T06:12:21.548Z,3.99
2023-01-12T06:14:48.522Z,4.05
2023-01-12T06:17:18.148Z,4.07
2023-01-12T06:19:45.077Z,4.09
2023-01-12T06:22:12.082Z,4.09
2023-01-12T06:24:39.002Z,4.13
2023-01-12T06:27:06.068Z,4.15
2023-01-12T06:29:34.155Z,4.18
2023-01-12T06:32:01.072Z,4.19
2023-01-12T06:34:28.073Z,4.21
2023-01-12T06:36:56.120Z,4.22
2023-01-12T06:39:23.008Z,4.23
2023-01-12T06:42:08.712Z,4.12
2023-01-12T06:44:35.691Z,4.27
2023-01-12T06:47:03.797Z,4.27
2023-01-12T06:49:30.756Z,4.27
2023-01-12T06:51:57.787Z,4.29
2023-01-12T06:54:24.693Z,4.29
2023-01-12T06:56:51.769Z,4.28
2023-01-12T06:59:18.703Z,4.29
2023-01-12T07:01:45.737Z,4.29
2023-01-12T07:04:12.691Z,4.32
2023-01-12T07:06:39.636Z,4.31
2023-01-12T07:09:06.806Z,4.34
2023-01-12T07:11:33.691Z,4.32
2023-01-12T07:14:00.652Z,4.29
2023-01-12T07:16:27.635Z,4.29
2023-01-12T07:18:54.976Z,4.29
2023-01-12T07:21:22.434Z,4.29
2023-01-12T07:23:49.306Z,4.24
2023-01-12T07:26:16.274Z,4.24
2023-01-12T07:28:43.314Z,4.17
2023-01-12T07:31:12.496Z,4.25
2023-01-12T07:33:40.273Z,4.24
2023-01-12T07:36:07.359Z,4.22
2023-01-12T07:38:34.254Z,4.19
2023-01-12T07:41:02.649Z,4.19
2023-01-12T07:43:30.650Z,4.10
2023-01-12T07:45:58.502Z,4.16
2023-01-12T07:48:27.757Z,4.14
2023-01-12T07:50:55.158Z,4.10
2023-01-12T07:53:22.442Z,4.12
2023-01-12T07:55:49.506Z,4.13
2023-01-12T07:58:16.650Z,4.15
2023-01-12T08:00:43.619Z,4.13
2023-01-12T08:03:14.272Z,4.12
2023-01-12T08:05:44.197Z,3.97
2023-01-12T08:08:11.116Z,4.12
2023-01-12T08:10:39.080Z,4.11
2023-01-12T08:13:05.965Z,4.15
2023-01-12T08:15:38.924Z,4.16
2023-01-12T08:18:29.325Z,4.19
2023-01-12T08:21:00.315Z,4.19
2023-01-12T08:23:34.806Z,4.14
2023-01-12T08:26:07.681Z,4.21
2023-01-12T08:28:39.445Z,4.25
2023-01-12T08:31:10.757Z,4.37
2023-01-12T08:33:38.737Z,4.39
2023-01-12T08:36:06.594Z,4.52
2023-01-12T08:38:33.593Z,4.64
2023-01-12T08:41:19.313Z,4.74
2023-01-12T08:44:06.665Z,4.83
2023-01-12T08:46:52.583Z,4.95
2023-01-12T08:49:24.555Z,5.02
2023-01-12T08:51:51.593Z,5.10
2023-01-12T08:54:20.220Z,5.14
2023-01-12T08:56:47.946Z,5.16
2023-01-12T08:59:16.350Z,5.28
2023-01-12T09:01:43.842Z,5.34
2023-01-12T09:04:11.257Z,5.47
2023-01-12T09:06:41.492Z,5.59
2023-01-12T09:09:12.178Z,5.67
2023-01-12T09:11:42.337Z,5.72
2023-01-12T09:14:10.739Z,5.78
2023-01-12T09:16:37.946Z,5.82
2023-01-12T09:19:05.300Z,5.82
2023-01-12T09:21:33.244Z,5.83
2023-01-12T09:24:00.223Z,5.86
2023-01-12T09:26:32.124Z,5.88
2023-01-12T09:29:04.498Z,5.84
2023-01-12T09:31:33.144Z,5.78
2023-01-12T09:34:00.787Z,5.84
2023-01-12T09:36:29.395Z,5.87
2023-01-12T09:38:56.576Z,5.87
2023-01-12T09:41:44.820Z,5.91
2023-01-12T09:45:09.905Z,5.96
2023-01-12T09:47:40.018Z,6.16
2023-01-12T09:50:10.671Z,6.23
2023-01-12T09:53:00.788Z,6.33
2023-01-12T09:55:46.382Z,6.45
2023-01-12T09:58:27.855Z,6.56
2023-01-12T10:00:57.530Z,6.66
2023-01-12T10:03:35.942Z,6.62
2023-01-12T10:06:03.259Z,6.86
2023-01-12T10:08:52.380Z,7.00
2023-01-12T10:11:19.282Z,7.22
2023-01-12T10:14:04.958Z,7.30
2023-01-12T10:17:00.893Z,7.39
2023-01-12T10:19:50.792Z,7.50
2023-01-12T10:22:38.671Z,7.48
2023-01-12T10:25:30.075Z,7.59
2023-01-12T10:28:00.599Z,7.55
2023-01-12T10:30:36.462Z,7.59
2023-01-12T10:33:29.541Z,7.61
2023-01-12T10:36:18.776Z,7.62
2023-01-12T10:38:58.015Z,7.53
2023-01-12T10:41:26.984Z,7.41
2023-01-12T10:43:56.876Z,7.57
2023-01-12T10:46:27.199Z,7.56
2023-01-12T10:49:31.175Z,7.65
2023-01-12T10:52:00.740Z,7.67
2023-01-12T10:54:41.635Z,7.64
2023-01-12T10:57:23.478Z,7.75
2023-01-12T10:59:57.380Z,7.78
2023-01-12T11:02:29.258Z,7.78
2023-01-12T11:04:56.938Z,7.65
2023-01-12T11:07:29.168Z,7.66
2023-01-12T11:10:19.367Z,7.72
2023-01-12T11:13:00.684Z,7.58
2023-01-12T11:15:29.997Z,7.65
2023-01-12T11:18:15.348Z,7.80
2023-01-12T11:20:50.777Z,7.84
2023-01-12T11:23:43.989Z,7.84
2023-01-12T11:26:19.643Z,7.82
2023-01-12T11:28:56.042Z,7.79
2023-01-12T11:31:28.443Z,7.89
2023-01-12T11:34:34.940Z,8.01
2023-01-12T11:37:14.708Z,8.11
2023-01-12T11:39:44.145Z,8.27
2023-01-12T11:42:41.856Z,8.27
2023-01-12T11:45:15.609Z,8.32
2023-01-12T11:48:18.720Z,8.50
2023-01-12T11:50:48.799Z,8.48
2023-01-12T11:53:22.510Z,8.63
2023-01-12T11:56:01.510Z,8.65
2023-01-12T11:58:52.927Z,8.38
2023-01-12T12:01:49.393Z,8.28
2023-01-12T12:04:21.869Z,8.32
2023-01-12T12:07:05.500Z,8.50
2023-01-12T12:09:54.086Z,8.65
2023-01-12T12:12:33.636Z,8.55
2023-01-12T12:15:21.941Z,8.57
2023-01-12T12:18:05.558Z,8.54
2023-01-12T12:20:51.630Z,8.65
2023-01-12T12:23:27.232Z,8.76
2023-01-12T12:26:12.163Z,8.81
2023-01-12T12:28:48.175Z,8.88
2023-01-12T12:31:30.355Z,8.89
2023-01-12T12:34:14.071Z,8.91
2023-01-12T12:37:10.488Z,8.92
2023-01-12T12:39:53.124Z,8.93
2023-01-12T12:42:57.465Z,8.96
2023-01-12T12:45:42.615Z,8.85
2023-01-12T12:48:21.700Z,8.82
2023-01-12T12:51:08.196Z,8.81
2023-01-12T12:53:41.606Z,8.67
2023-01-12T12:56:15.183Z,8.78
2023-01-12T12:58:57.873Z,8.74
2023-01-12T13:01:24.973Z,8.80
2023-01-12T13:03:53.363Z,8.81
2023-01-12T13:06:40.461Z,8.81
2023-01-12T13:09:12.867Z,8.77
2023-01-12T13:11:59.220Z,8.85
2023-01-12T13:14:38.178Z,8.81
2023-01-12T13:17:19.937Z,8.78
2023-01-12T13:20:10.752Z,8.74
2023-01-12T13:22:49.093Z,8.69
2023-01-12T13:25:19.739Z,8.64
2023-01-12T13:27:56.882Z,8.68
2023-01-12T13:30:29.789Z,8.61
2023-01-12T13:33:11.712Z,8.56
2023-01-12T13:35:40.494Z,8.47
2023-01-12T13:38:44.036Z,8.42
2023-01-12T13:41:13.923Z,8.40
2023-01-12T13:43:43.108Z,8.34
2023-01-12T13:46:25.780Z,8.30
2023-01-12T13:48:55.672Z,8.30
2023-01-12T13:51:28.525Z,8.25
2023-01-12T13:54:04.515Z,8.27
2023-01-12T13:56:32.317Z,8.28
2023-01-12T13:59:01.877Z,8.30
2023-01-12T14:01:39.574Z,8.28
2023-01-12T14:04:18.054Z,8.27
2023-01-12T14:07:12.044Z,8.30
2023-01-12T14:09:41.893Z,8.30
2023-01-12T14:12:37.986Z,8.21
2023-01-12T14:15:45.609Z,8.08
2023-01-12T14:18:17.519Z,7.96
2023-01-12T14:20:50.522Z,7.76
2023-01-12T14:23:27.961Z,7.67
2023-01-12T14:26:17.832Z,7.61
2023-01-12T14:28:47.247Z,7.51
2023-01-12T14:31:39.685Z,7.44
2023-01-12T14:34:21.034Z,7.35
2023-01-12T14:36:48.930Z,7.28
2023-01-12T14:39:20.870Z,7.21
2023-01-12T14:42:14.183Z,7.14
2023-01-12T14:45:12.248Z,6.99
2023-01-12T14:47:39.472Z,6.86
2023-01-12T14:50:21.996Z,6.80
2023-01-12T14:52:49.550Z,6.71
2023-01-12T14:55:19.532Z,6.64
2023-01-12T14:57:57.178Z,6.54
2023-01-12T15:00:28.784Z,6.45
2023-01-12T15:02:57.866Z,6.35
2023-01-12T15:05:33.821Z,6.22
2023-01-12T15:08:27.037Z,6.21
2023-01-12T15:11:06.620Z,6.15
2023-01-12T15:13:35.719Z,6.10
2023-01-12T15:16:23.457Z,6.06
2023-01-12T15:19:09.354Z,5.99
2023-01-12T15:21:56.489Z,5.97
2023-01-12T15:24:46.752Z,5.88
2023-01-12T15:27:19.839Z,5.79
2023-01-12T15:29:47.641Z,5.72
2023-01-12T15:32:22.668Z,5.69
2023-01-12T15:34:50.102Z,5.65
2023-01-12T15:37:21.981Z,5.58
2023-01-12T15:39:48.918Z,5.56
2023-01-12T15:42:20.194Z,5.53
2023-01-12T15:44:49.526Z,5.49
2023-01-12T15:47:20.097Z,5.47
2023-01-12T15:49:49.001Z,5.45
2023-01-12T15:52:24.906Z,5.40
2023-01-12T15:54:52.228Z,5.35
2023-01-12T15:57:19.352Z,5.31
2023-01-12T15:59:46.324Z,5.31
2023-01-12T16:02:27.743Z,5.23
2023-01-12T16:04:54.789Z,5.30
2023-01-12T16:07:22.141Z,5.26
2023-01-12T16:09:50.864Z,5.25
2023-01-12T16:12:18.554Z,5.25
2023-01-12T16:14:45.586Z,5.24
2023-01-12T16:17:12.502Z,5.24
2023-01-12T16:19:42.834Z,5.25
2023-01-12T16:22:28.213Z,5.26
2023-01-12T16:24:57.154Z,5.28
2023-01-12T16:27:27.029Z,5.28
2023-01-12T16:29:54.377Z,5.26
2023-01-12T16:32:26.037Z,5.24
2023-01-12T16:34:53.562Z,5.16
2023-01-12T16:37:23.320Z,5.11
2023-01-12T16:39:50.448Z,4.95
2023-01-12T16:42:17.429Z,5.00
2023-01-12T16:44:44.396Z,4.98
2023-01-12T16:47:17.103Z,4.93
2023-01-12T16:49:44.692Z,4.90
2023-01-12T16:52:15.602Z,4.89
2023-01-12T16:54:43.008Z,4.82
2023-01-12T16:57:16.166Z,4.81
2023-01-12T16:59:43.319Z,4.80
2023-01-12T17:02:16.010Z,4.56
2023-01-12T17:04:45.018Z,4.65
2023-01-12T17:07:12.977Z,4.63
2023-01-12T17:09:40.320Z,4.64
2023-01-12T17:12:07.941Z,4.63
2023-01-12T17:14:35.537Z,4.40
2023-01-12T17:17:06.966Z,4.58
2023-01-12T17:19:35.602Z,4.55
2023-01-12T17:22:03.226Z,4.37
2023-01-12T17:24:32.032Z,4.51
2023-01-12T17:26:59.715Z,4.42
2023-01-12T17:29:27.987Z,4.54
2023-01-12T17:32:03.632Z,4.47
2023-01-12T17:34:33.574Z,4.50
2023-01-12T17:37:08.268Z,4.49
2023-01-12T17:39:36.867Z,4.48
2023-01-12T17:42:23.750Z,4.46
2023-01-12T17:44:50.879Z,4.41
2023-01-12T17:47:17.859Z,4.43
2023-01-12T17:49:46.156Z,4.44
2023-01-12T17:52:13.073Z,4.43
2023-01-12T17:54:42.331Z,4.41
2023-01-12T17:57:09.412Z,4.40
2023-01-12T17:59:36.414Z,4.38
2023-01-12T18:02:03.931Z,4.35
2023-01-12T18:04:31.689Z,4.37
2023-01-12T18:06:59.089Z,4.33
2023-01-12T18:09:28.191Z,4.32
2023-01-12T18:11:55.159Z,4.29
2023-01-12T18:14:25.686Z,4.06
2023-01-12T18:16:52.572Z,4.30
2023-01-12T18:19:19.711Z,4.31
2023-01-12T18:21:46.856Z,4.26
2023-01-12T18:24:13.805Z,4.36
2023-01-12T18:26:40.762Z,4.00
2023-01-12T18:29:08.096Z,4.37
2023-01-12T18:31:37.724Z,4.38
2023-01-12T18:34:06.359Z,4.36
2023-01-12T18:36:36.342Z,4.34
2023-01-12T18:39:06.131Z,4.31
2023-01-12T18:41:51.814Z,4.30
2023-01-12T18:44:18.725Z,4.30
2023-01-12T18:47:04.384Z,4.29
2023-01-12T18:49:34.114Z,4.30
2023-01-12T18:52:20.415Z,4.32
2023-01-12T18:54:48.397Z,4.33
2023-01-12T18:57:19.617Z,4.38
2023-01-12T18:59:48.480Z,4.38
2023-01-12T19:02:16.278Z,4.41
2023-01-12T19:04:46.278Z,4.41
2023-01-12T19:07:15.502Z,4.37
2023-01-12T19:09:42.474Z,4.42
2023-01-12T19:12:09.527Z,4.41
2023-01-12T19:14:55.025Z,4.38
2023-01-12T19:17:27.663Z,4.34
2023-01-12T19:19:55.945Z,4.32
2023-01-12T19:22:42.356Z,4.30
2023-01-12T19:25:36.868Z,4.24
2023-01-12T19:28:23.621Z,4.24
2023-01-12T19:30:50.935Z,4.21
2023-01-12T19:33:18.278Z,4.20
2023-01-12T19:35:47.163Z,4.22
2023-01-12T19:38:14.963Z,4.19
2023-01-12T19:40:54.846Z,4.16
2023-01-12T19:43:26.460Z,4.20
2023-01-12T19:45:58.846Z,4.19
2023-01-12T19:48:27.053Z,4.20
2023-01-12T19:50:54.325Z,4.19
2023-01-12T19:53:26.136Z,4.21
2023-01-12T19:55:53.421Z,4.21
2023-01-12T19:58:22.331Z,4.26
2023-01-12T20:00:50.063Z,4.30
2023-01-12T20:03:19.854Z,4.32
2023-01-12T20:05:51.039Z,4.40
2023-01-12T20:08:23.729Z,4.48
2023-01-12T20:10:59.351Z,4.55
2023-01-12T20:13:26.996Z,4.65
2023-01-12T20:15:56.930Z,4.69
2023-01-12T20:18:24.031Z,4.71
2023-01-12T20:20:51.259Z,4.70
2023-01-12T20:23:20.307Z,4.75
2023-01-12T20:25:47.393Z,4.74
2023-01-12T20:28:15.071Z,4.68
2023-01-12T20:30:43.140Z,4.75
2023-01-12T20:33:10.916Z,4.79
2023-01-12T20:35:39.375Z,4.83
2023-01-12T20:38:07.206Z,4.78
2023-01-12T20:40:34.425Z,4.86
2023-01-12T20:43:01.579Z,4.88
2023-01-12T20:45:28.536Z,4.89
2023-01-12T20:47:56.203Z,4.90
2023-01-12T20:50:25.705Z,4.89
2023-01-12T20:52:54.414Z,4.89
2023-01-12T20:55:21.881Z,4.90
2023-01-12T20:57:49.335Z,4.91
2023-01-12T21:00:17.004Z,4.90
2023-01-12T21:02:44.112Z,4.78
2023-01-12T21:05:11.145Z,4.95
2023-01-12T21:07:38.152Z,4.97
2023-01-12T21:10:07.450Z,4.97
2023-01-12T21:12:34.753Z,5.01
2023-01-12T21:15:01.706Z,5.02
2023-01-12T21:17:28.646Z,5.04
2023-01-12T21:19:55.640Z,5.06
2023-01-12T21:22:22.541Z,5.04
2023-01-12T21:24:50.655Z,5.10
2023-01-12T21:27:17.705Z,5.03
2023-01-12T21:29:46.126Z,5.19
2023-01-12T21:32:13.245Z,5.18
2023-01-12T21:34:40.261Z,5.21
2023-01-12T21:37:07.926Z,5.23
2023-01-12T21:39:34.973Z,5.24
2023-01-12T21:42:20.433Z,5.24
2023-01-12T21:44:47.528Z,5.25
2023-01-12T21:47:14.650Z,5.22
2023-01-12T21:49:41.575Z,5.23
2023-01-12T21:52:08.493Z,5.23
2023-01-12T21:54:35.451Z,5.18
2023-01-12T21:57:02.429Z,5.28
2023-01-12T21:59:29.383Z,5.29
2023-01-12T22:01:56.521Z,5.25
2023-01-12T22:04:25.969Z,5.27
2023-01-12T22:06:53.516Z,5.27
2023-01-12T22:09:21.054Z,5.24
2023-01-12T22:11:47.947Z,5.28
2023-01-12T22:14:14.872Z,5.28
2023-01-12T22:16:41.918Z,5.29
2023-01-12T22:19:09.000Z,5.29
2023-01-12T22:21:36.434Z,5.28
2023-01-12T22:24:04.075Z,5.27
2023-01-12T22:26:32.860Z,5.27
2023-01-12T22:28:59.887Z,5.27
2023-01-12T22:31:27.008Z,5.26
2023-01-12T22:34:06.793Z,5.23
2023-01-12T22:36:43.227Z,5.31
2023-01-12T22:39:13.703Z,5.34
2023-01-12T22:41:41.091Z,5.37
2023-01-12T22:44:08.081Z,5.38
2023-01-12T22:46:35.757Z,5.39
2023-01-12T22:49:02.831Z,5.24
2023-01-12T22:51:30.135Z,5.42
2023-01-12T22:53:57.863Z,5.42
2023-01-12T22:56:25.404Z,5.46
2023-01-12T22:58:55.380Z,5.48
2023-01-12T23:01:26.236Z,5.25
2023-01-12T23:03:57.193Z,5.52
2023-01-12T23:06:25.783Z,5.51
2023-01-12T23:08:52.885Z,5.52
2023-01-12T23:11:26.002Z,5.53
2023-01-12T23:13:55.149Z,5.57
2023-01-12T23:16:22.376Z,5.58
2023-01-12T23:18:50.652Z,5.61
2023-01-12T23:21:20.682Z,5.63
2023-01-12T23:23:50.461Z,5.60
2023-01-12T23:26:23.072Z,5.59
2023-01-12T23:28:57.783Z,5.58
2023-01-12T23:31:27.777Z,5.54
2023-01-12T23:33:55.570Z,5.57
2023-01-12T23:36:24.989Z,5.59
2023-01-12T23:39:01.151Z,5.58
2023-01-12T23:41:30.075Z,5.58
2023-01-12T23:44:02.316Z,5.58
2023-01-12T23:46:30.431Z,5.60
2023-01-12T23:48:58.172Z,5.59
2023-01-12T23:51:27.126Z,5.57
2023-01-12T23:53:55.286Z,5.56
2023-01-12T23:56:23.874Z,5.56
2023-01-12T23:58:50.917Z,5.54
